createdAt,value
2019-03-16T00:00:47.437Z,992.3
2019-03-16T00:01:57.728Z,992.4
2019-03-16T00:02:59.891Z,992.5
2019-03-16T00:04:02.065Z,992.5
2019-03-16T00:05:04.399Z,992.5
2019-03-16T00:06:06.444Z,992.2
2019-03-16T00:07:08.460Z,992.4
2019-03-16T00:08:10.493Z,992.5
2019-03-16T00:09:12.524Z,992.4
2019-03-16T00:10:14.569Z,992.5
2019-03-16T00:11:16.593Z,992.5
2019-03-16T00:12:19.016Z,992.5
2019-03-16T00:13:21.074Z,992.6
2019-03-16T00:14:23.123Z,992.6
2019-03-16T00:15:25.168Z,992.6
2019-03-16T00:16:27.218Z,992.6
2019-03-16T00:17:29.522Z,992.6
2019-03-16T00:18:31.844Z,992.6
2019-03-16T00:19:34.170Z,992.7
2019-03-16T00:20:36.247Z,992.6
2019-03-16T00:21:38.562Z,992.8
2019-03-16T00:22:40.593Z,992.7
2019-03-16T00:23:42.632Z,992.7
2019-03-16T00:24:44.684Z,992.6
2019-03-16T00:25:46.754Z,992.6
2019-03-16T00:26:48.771Z,992.7
2019-03-16T00:27:51.204Z,992.7
2019-03-16T00:28:53.646Z,992.6
2019-03-16T00:29:55.681Z,992.7
2019-03-16T00:30:57.732Z,992.8
2019-03-16T00:32:13.928Z,992.8
2019-03-16T00:33:16.020Z,992.7
2019-03-16T00:34:18.713Z,992.7
2019-03-16T00:35:21.519Z,992.8
2019-03-16T00:36:23.544Z,992.7
2019-03-16T00:37:25.573Z,992.7
2019-03-16T00:38:27.616Z,992.8
2019-03-16T00:39:29.930Z,992.8
2019-03-16T00:40:31.993Z,992.9
2019-03-16T00:41:34.069Z,993
2019-03-16T00:42:36.199Z,993
2019-03-16T00:43:38.238Z,993
2019-03-16T00:44:40.282Z,993
2019-03-16T00:45:42.357Z,992.9
2019-03-16T00:46:44.390Z,993
2019-03-16T00:47:46.428Z,993.1
2019-03-16T00:48:48.830Z,993.1
2019-03-16T00:49:50.880Z,992.9
2019-03-16T00:50:52.918Z,992.9
2019-03-16T00:51:55.247Z,993.1
2019-03-16T00:52:57.322Z,993
2019-03-16T00:53:59.709Z,993.1
2019-03-16T00:55:02.124Z,993.1
2019-03-16T00:56:04.156Z,993.1
2019-03-16T00:57:06.198Z,993
2019-03-16T00:58:08.606Z,993.2
2019-03-16T00:59:10.647Z,993.3
2019-03-16T01:00:13.350Z,993.3
2019-03-16T01:01:15.381Z,993.2
2019-03-16T01:02:27.704Z,993.4
2019-03-16T01:03:29.807Z,993.3
2019-03-16T01:04:32.138Z,993.4
2019-03-16T01:05:34.164Z,993.4
2019-03-16T01:06:36.478Z,993.3
2019-03-16T01:07:38.513Z,993.5
2019-03-16T01:08:40.548Z,993.5
2019-03-16T01:09:44.056Z,993.5
2019-03-16T01:10:46.102Z,993.5
2019-03-16T01:11:48.157Z,993.4
2019-03-16T01:12:50.174Z,993.6
2019-03-16T01:13:52.215Z,993.6
2019-03-16T01:14:54.239Z,993.5
2019-03-16T01:15:56.341Z,993.6
2019-03-16T01:16:58.379Z,993.6
2019-03-16T01:18:00.796Z,993.7
2019-03-16T01:19:02.823Z,993.8
2019-03-16T01:20:05.247Z,993.7
2019-03-16T01:21:07.289Z,993.7
2019-03-16T01:22:09.308Z,993.6
2019-03-16T01:23:11.343Z,993.7
2019-03-16T01:24:13.459Z,993.7
2019-03-16T01:25:15.767Z,993.7
2019-03-16T01:26:17.788Z,993.7
2019-03-16T01:27:19.825Z,993.7
2019-03-16T01:28:21.927Z,993.7
2019-03-16T01:29:24.235Z,993.7
2019-03-16T01:30:26.272Z,993.7
2019-03-16T01:31:28.295Z,993.8
2019-03-16T01:32:41.185Z,993.9
2019-03-16T01:33:43.527Z,993.8
2019-03-16T01:34:45.567Z,993.7
2019-03-16T01:35:47.604Z,993.8
2019-03-16T01:36:49.641Z,993.8
2019-03-16T01:37:51.698Z,993.8
2019-03-16T01:38:53.731Z,993.8
2019-03-16T01:39:55.771Z,993.8
2019-03-16T01:40:57.889Z,993.7
2019-03-16T01:42:00.206Z,993.8
2019-03-16T01:43:02.298Z,993.7
2019-03-16T01:44:04.331Z,993.8
2019-03-16T01:45:06.369Z,993.9
2019-03-16T01:46:08.678Z,993.9
2019-03-16T01:47:10.722Z,994
2019-03-16T01:48:12.821Z,994
2019-03-16T01:49:14.881Z,994
2019-03-16T01:50:16.916Z,993.9
2019-03-16T01:51:19.233Z,993.9
2019-03-16T01:52:21.294Z,993.9
2019-03-16T01:53:23.710Z,994
2019-03-16T01:54:25.840Z,994
2019-03-16T01:55:27.855Z,993.9
2019-03-16T01:56:29.890Z,993.9
2019-03-16T01:57:31.920Z,994
2019-03-16T01:58:33.953Z,994.1
2019-03-16T01:59:35.978Z,994
2019-03-16T02:00:38.033Z,994.1
2019-03-16T02:01:40.068Z,994
2019-03-16T02:02:55.969Z,994.1
2019-03-16T02:03:58.075Z,994.1
2019-03-16T02:05:00.163Z,994
2019-03-16T02:06:02.765Z,994.1
2019-03-16T02:07:04.803Z,994.3
2019-03-16T02:08:07.122Z,994.2
2019-03-16T02:09:09.143Z,994.2
2019-03-16T02:10:11.460Z,994.1
2019-03-16T02:11:13.871Z,994.3
2019-03-16T02:12:15.895Z,994.3
2019-03-16T02:13:18.036Z,994.3
2019-03-16T02:14:20.070Z,994.2
2019-03-16T02:15:22.680Z,994.3
2019-03-16T02:16:24.995Z,994.4
2019-03-16T02:17:27.030Z,994.2
2019-03-16T02:18:29.133Z,994.4
2019-03-16T02:19:31.159Z,994.4
2019-03-16T02:20:36.937Z,994.4
2019-03-16T02:21:39.539Z,994.5
2019-03-16T02:22:42.224Z,994.5
2019-03-16T02:23:44.294Z,994.4
2019-03-16T02:24:46.705Z,994.3
2019-03-16T02:25:48.734Z,994.3
2019-03-16T02:26:50.838Z,994.5
2019-03-16T02:27:52.886Z,994.4
2019-03-16T02:28:55.464Z,994.4
2019-03-16T02:29:57.500Z,994.4
2019-03-16T02:30:59.533Z,994.5
2019-03-16T02:32:01.579Z,994.4
2019-03-16T02:33:13.927Z,994.4
2019-03-16T02:34:16.056Z,994.5
2019-03-16T02:35:18.381Z,994.5
2019-03-16T02:36:20.714Z,994.5
2019-03-16T02:37:22.761Z,994.5
2019-03-16T02:38:25.485Z,994.6
2019-03-16T02:39:27.534Z,994.6
2019-03-16T02:40:30.187Z,994.5
2019-03-16T02:41:32.551Z,994.6
2019-03-16T02:42:34.579Z,994.5
2019-03-16T02:43:37.603Z,994.6
2019-03-16T02:44:40.347Z,994.6
2019-03-16T02:45:42.429Z,994.6
2019-03-16T02:46:44.509Z,994.7
2019-03-16T02:47:46.936Z,994.6
2019-03-16T02:48:49.637Z,994.7
2019-03-16T02:49:51.688Z,994.7
2019-03-16T02:50:53.724Z,994.8
2019-03-16T02:51:56.316Z,994.7
2019-03-16T02:52:58.371Z,994.8
2019-03-16T02:54:00.815Z,994.8
2019-03-16T02:55:03.258Z,994.8
2019-03-16T02:56:05.322Z,994.8
2019-03-16T02:57:08.046Z,994.8
2019-03-16T02:58:10.091Z,994.9
2019-03-16T02:59:12.244Z,994.8
2019-03-16T03:00:14.328Z,995
2019-03-16T03:01:16.812Z,994.9
2019-03-16T03:02:19.068Z,994.9
2019-03-16T03:03:30.351Z,994.9
2019-03-16T03:04:32.447Z,995
2019-03-16T03:05:34.534Z,994.8
2019-03-16T03:06:36.969Z,994.9
2019-03-16T03:07:39.279Z,995
2019-03-16T03:08:42.039Z,995
2019-03-16T03:09:44.380Z,995.1
2019-03-16T03:10:46.420Z,995
2019-03-16T03:11:49.151Z,995
2019-03-16T03:12:51.773Z,995
2019-03-16T03:13:54.278Z,995.2
2019-03-16T03:14:56.333Z,995.2
2019-03-16T03:15:58.959Z,995.1
2019-03-16T03:17:01.014Z,995.1
2019-03-16T03:18:03.762Z,995.1
2019-03-16T03:19:06.336Z,995.2
2019-03-16T03:20:08.421Z,995.2
2019-03-16T03:21:10.774Z,995.2
2019-03-16T03:22:13.549Z,995.2
2019-03-16T03:23:15.774Z,995.3
2019-03-16T03:24:18.122Z,995.2
2019-03-16T03:25:20.682Z,995.3
2019-03-16T03:26:23.288Z,995.2
2019-03-16T03:27:25.378Z,995.3
2019-03-16T03:28:27.754Z,995.3
2019-03-16T03:29:30.212Z,995.3
2019-03-16T03:30:32.787Z,995.2
2019-03-16T03:31:34.957Z,995.3
2019-03-16T03:32:37.823Z,995.2
2019-03-16T03:34:02.361Z,995.3
2019-03-16T03:35:05.832Z,995.3
2019-03-16T03:36:08.215Z,995.3
2019-03-16T03:37:10.514Z,995.3
2019-03-16T03:38:12.547Z,995.3
2019-03-16T03:39:15.143Z,995.4
2019-03-16T03:40:17.554Z,995.3
2019-03-16T03:41:20.033Z,995.4
2019-03-16T03:42:22.116Z,995.4
2019-03-16T03:43:24.463Z,995.4
2019-03-16T03:44:26.778Z,995.5
2019-03-16T03:45:29.142Z,995.5
2019-03-16T03:46:32.952Z,995.6
2019-03-16T03:47:35.285Z,995.6
2019-03-16T03:48:37.727Z,995.6
2019-03-16T03:49:39.777Z,995.6
2019-03-16T03:50:41.819Z,995.6
2019-03-16T03:51:43.873Z,995.6
2019-03-16T03:52:46.701Z,995.7
2019-03-16T03:53:49.143Z,995.5
2019-03-16T03:54:51.561Z,995.6
2019-03-16T03:55:53.626Z,995.6
2019-03-16T03:56:56.714Z,995.5
2019-03-16T03:57:59.113Z,995.6
2019-03-16T03:59:01.500Z,995.6
2019-03-16T04:00:03.821Z,995.5
2019-03-16T04:01:06.561Z,995.5
2019-03-16T04:02:08.598Z,995.6
2019-03-16T04:03:11.685Z,995.6
2019-03-16T04:04:16.457Z,995.6
2019-03-16T04:05:18.537Z,995.6
2019-03-16T04:06:21.196Z,995.6
2019-03-16T04:07:23.521Z,995.7
2019-03-16T04:08:25.576Z,995.6
2019-03-16T04:09:27.884Z,995.6
2019-03-16T04:10:30.227Z,995.6
2019-03-16T04:11:32.684Z,995.6
2019-03-16T04:12:35.304Z,995.6
2019-03-16T04:13:38.327Z,995.6
2019-03-16T04:14:40.761Z,995.6
2019-03-16T04:15:43.102Z,995.6
2019-03-16T04:16:45.554Z,995.6
2019-03-16T04:17:47.589Z,995.6
2019-03-16T04:18:52.153Z,995.7
2019-03-16T04:19:54.921Z,995.6
2019-03-16T04:20:57.259Z,995.6
2019-03-16T04:21:59.307Z,995.7
2019-03-16T04:23:01.621Z,995.7
2019-03-16T04:24:04.909Z,995.7
2019-03-16T04:25:06.972Z,995.7
2019-03-16T04:26:09.300Z,995.7
2019-03-16T04:27:17.053Z,995.7
2019-03-16T04:28:19.146Z,995.7
2019-03-16T04:29:21.204Z,995.7
2019-03-16T04:30:23.529Z,995.8
2019-03-16T04:31:25.560Z,995.7
2019-03-16T04:32:27.948Z,995.8
2019-03-16T04:33:29.969Z,995.9
2019-03-16T04:34:32.019Z,995.8
2019-03-16T04:35:34.058Z,995.8
2019-03-16T04:36:36.116Z,995.8
2019-03-16T04:37:38.845Z,995.8
2019-03-16T04:38:41.184Z,995.8
2019-03-16T04:39:43.320Z,995.9
2019-03-16T04:40:45.350Z,995.7
2019-03-16T04:41:47.769Z,995.8
2019-03-16T04:42:49.864Z,995.8
2019-03-16T04:43:51.919Z,995.8
2019-03-16T04:44:54.225Z,995.8
2019-03-16T04:45:56.261Z,995.9
2019-03-16T04:46:58.373Z,995.9
2019-03-16T04:48:00.406Z,995.9
2019-03-16T04:49:02.439Z,996
2019-03-16T04:50:04.473Z,995.9
2019-03-16T04:51:06.817Z,996
2019-03-16T04:52:08.841Z,996
2019-03-16T04:53:11.252Z,996
2019-03-16T04:54:13.284Z,995.9
2019-03-16T04:55:15.336Z,995.9
2019-03-16T04:56:17.499Z,996
2019-03-16T04:57:19.581Z,996
2019-03-16T04:58:21.918Z,996.1
2019-03-16T04:59:24.047Z,996
2019-03-16T05:00:26.358Z,996
2019-03-16T05:01:28.670Z,996
2019-03-16T05:02:30.710Z,996.1
2019-03-16T05:03:32.735Z,996.1
2019-03-16T05:04:43.043Z,996.1
2019-03-16T05:05:45.103Z,996.1
2019-03-16T05:06:47.125Z,996
2019-03-16T05:07:49.175Z,996.1
2019-03-16T05:08:51.231Z,996.1
2019-03-16T05:09:53.567Z,996
2019-03-16T05:10:55.591Z,996
2019-03-16T05:11:57.704Z,996.1
2019-03-16T05:12:59.723Z,996.1
2019-03-16T05:14:01.751Z,996.1
2019-03-16T05:15:03.789Z,996.1
2019-03-16T05:16:05.803Z,996.2
2019-03-16T05:17:07.846Z,996.2
2019-03-16T05:18:09.959Z,996.3
2019-03-16T05:19:11.995Z,996.3
2019-03-16T05:20:14.009Z,996.2
2019-03-16T05:21:16.124Z,996.3
2019-03-16T05:22:18.150Z,996.3
2019-03-16T05:23:20.267Z,996.2
2019-03-16T05:24:22.316Z,996.3
2019-03-16T05:25:24.712Z,996.3
2019-03-16T05:26:26.829Z,996.3
2019-03-16T05:27:28.879Z,996.3
2019-03-16T05:28:31.190Z,996.3
2019-03-16T05:29:33.538Z,996.5
2019-03-16T05:30:35.575Z,996.4
2019-03-16T05:31:37.601Z,996.4
2019-03-16T05:32:40.017Z,996.3
2019-03-16T05:33:42.056Z,996.4
2019-03-16T05:34:57.031Z,996.3
2019-03-16T05:35:59.363Z,996.4
2019-03-16T05:37:02.465Z,996.4
2019-03-16T05:38:04.777Z,996.5
2019-03-16T05:39:07.501Z,996.5
2019-03-16T05:40:09.818Z,996.5
2019-03-16T05:41:11.856Z,996.5
2019-03-16T05:42:13.882Z,996.5
2019-03-16T05:43:15.910Z,996.5
2019-03-16T05:44:18.333Z,996.5
2019-03-16T05:45:20.354Z,996.5
2019-03-16T05:46:22.388Z,996.5
2019-03-16T05:47:24.421Z,996.6
2019-03-16T05:48:26.438Z,996.6
2019-03-16T05:49:28.504Z,996.6
2019-03-16T05:50:30.519Z,996.6
2019-03-16T05:51:32.829Z,996.6
2019-03-16T05:52:34.864Z,996.7
2019-03-16T05:53:36.916Z,996.6
2019-03-16T05:54:39.323Z,996.7
2019-03-16T05:55:41.363Z,996.7
2019-03-16T05:56:43.403Z,996.7
2019-03-16T05:57:45.891Z,996.7
2019-03-16T05:58:47.933Z,996.7
2019-03-16T05:59:50.255Z,996.7
2019-03-16T06:00:52.280Z,996.7
2019-03-16T06:01:54.305Z,996.7
2019-03-16T06:02:56.338Z,996.7
2019-03-16T06:03:58.369Z,996.8
2019-03-16T06:05:11.481Z,996.8
2019-03-16T06:06:13.999Z,996.8
2019-03-16T06:07:16.026Z,996.9
2019-03-16T06:08:18.050Z,996.8
2019-03-16T06:09:20.073Z,996.9
2019-03-16T06:10:22.199Z,996.8
2019-03-16T06:11:24.222Z,996.9
2019-03-16T06:12:26.249Z,996.8
2019-03-16T06:13:28.289Z,996.9
2019-03-16T06:14:30.704Z,996.9
2019-03-16T06:15:32.732Z,996.8
2019-03-16T06:16:34.759Z,996.8
2019-03-16T06:17:36.799Z,996.8
2019-03-16T06:18:38.818Z,996.9
2019-03-16T06:19:41.159Z,996.9
2019-03-16T06:20:43.187Z,996.9
2019-03-16T06:21:45.211Z,996.9
2019-03-16T06:22:47.555Z,996.9
2019-03-16T06:23:49.581Z,996.9
2019-03-16T06:24:51.984Z,996.9
2019-03-16T06:25:54.007Z,996.9
2019-03-16T06:26:56.065Z,996.9
2019-03-16T06:27:58.368Z,996.9
2019-03-16T06:29:00.786Z,996.9
2019-03-16T06:30:02.822Z,996.9
2019-03-16T06:31:04.848Z,996.9
2019-03-16T06:32:07.194Z,996.9
2019-03-16T06:33:09.225Z,996.9
2019-03-16T06:34:11.256Z,997
2019-03-16T06:35:27.851Z,997
2019-03-16T06:36:31.584Z,997
2019-03-16T06:37:33.611Z,997
2019-03-16T06:38:35.653Z,997
2019-03-16T06:39:38.272Z,997
2019-03-16T06:40:40.298Z,997
2019-03-16T06:41:43.822Z,997
2019-03-16T06:42:45.862Z,997.1
2019-03-16T06:43:48.178Z,997.1
2019-03-16T06:44:50.573Z,997.1
2019-03-16T06:45:52.892Z,997.2
2019-03-16T06:46:55.202Z,997.1
2019-03-16T06:47:57.527Z,997.2
2019-03-16T06:48:59.639Z,997.2
2019-03-16T06:50:01.978Z,997.1
2019-03-16T06:51:04.007Z,997.2
2019-03-16T06:52:06.043Z,997.2
2019-03-16T06:53:08.081Z,997.2
2019-03-16T06:54:10.109Z,997.2
2019-03-16T06:55:12.153Z,997.2
2019-03-16T06:56:14.173Z,997.2
2019-03-16T06:57:16.313Z,997.3
2019-03-16T06:58:18.344Z,997.2
2019-03-16T06:59:20.381Z,997.2
2019-03-16T07:00:22.407Z,997.2
2019-03-16T07:01:24.440Z,997.2
2019-03-16T07:02:26.847Z,997.3
2019-03-16T07:03:28.876Z,997.3
2019-03-16T07:04:31.298Z,997.3
2019-03-16T07:05:39.066Z,997.2
2019-03-16T07:06:41.428Z,997.3
2019-03-16T07:07:43.471Z,997.3
2019-03-16T07:08:45.506Z,997.3
2019-03-16T07:09:47.530Z,997.3
2019-03-16T07:10:49.564Z,997.3
2019-03-16T07:11:51.586Z,997.3
2019-03-16T07:12:53.613Z,997.3
2019-03-16T07:13:55.652Z,997.3
2019-03-16T07:14:57.679Z,997.3
2019-03-16T07:15:59.763Z,997.3
2019-03-16T07:17:02.843Z,997.3
2019-03-16T07:18:04.880Z,997.2
2019-03-16T07:19:06.901Z,997.4
2019-03-16T07:20:08.955Z,997.3
2019-03-16T07:21:10.973Z,997.3
2019-03-16T07:22:13.026Z,997.3
2019-03-16T07:23:15.274Z,997.3
2019-03-16T07:24:18.293Z,997.4
2019-03-16T07:25:20.334Z,997.4
2019-03-16T07:26:22.744Z,997.4
2019-03-16T07:27:26.780Z,997.4
2019-03-16T07:28:28.813Z,997.4
2019-03-16T07:29:30.834Z,997.4
2019-03-16T07:30:33.259Z,997.4
2019-03-16T07:31:38.919Z,997.5
2019-03-16T07:32:40.954Z,997.5
2019-03-16T07:33:42.978Z,997.5
2019-03-16T07:34:45.011Z,997.5
2019-03-16T07:35:47.311Z,997.4
2019-03-16T07:36:49.365Z,997.5
2019-03-16T07:37:51.407Z,997.5
2019-03-16T07:38:54.104Z,997.5
2019-03-16T07:39:56.130Z,997.6
2019-03-16T07:40:58.201Z,997.5
2019-03-16T07:42:01.048Z,997.6
2019-03-16T07:43:03.080Z,997.6
2019-03-16T07:44:05.112Z,997.5
2019-03-16T07:45:09.193Z,997.5
2019-03-16T07:46:11.310Z,997.5
2019-03-16T07:47:13.355Z,997.5
2019-03-16T07:48:15.388Z,997.5
2019-03-16T07:49:17.412Z,997.5
2019-03-16T07:50:19.472Z,997.5
2019-03-16T07:51:21.504Z,997.4
2019-03-16T07:52:23.544Z,997.5
2019-03-16T07:53:25.588Z,997.5
2019-03-16T07:54:27.605Z,997.5
2019-03-16T07:55:33.133Z,997.5
2019-03-16T07:56:35.169Z,997.5
2019-03-16T07:57:41.181Z,997.5
2019-03-16T07:58:44.064Z,997.5
2019-03-16T07:59:46.105Z,997.6
2019-03-16T08:00:48.130Z,997.5
2019-03-16T08:01:51.185Z,997.6
2019-03-16T08:02:53.232Z,997.5
2019-03-16T08:03:55.636Z,997.6
2019-03-16T08:04:57.965Z,997.6
2019-03-16T08:05:59.992Z,997.5
2019-03-16T08:07:02.047Z,997.6
2019-03-16T08:08:04.085Z,997.5
2019-03-16T08:09:06.794Z,997.6
2019-03-16T08:10:09.364Z,997.6
2019-03-16T08:11:11.970Z,997.6
2019-03-16T08:12:14.299Z,997.6
2019-03-16T08:13:16.343Z,997.6
2019-03-16T08:14:18.412Z,997.5
2019-03-16T08:15:20.514Z,997.6
2019-03-16T08:16:22.853Z,997.5
2019-03-16T08:17:24.958Z,997.5
2019-03-16T08:18:27.011Z,997.5
2019-03-16T08:19:29.330Z,997.5
2019-03-16T08:20:31.931Z,997.4
2019-03-16T08:21:34.348Z,997.4
2019-03-16T08:22:36.391Z,997.4
2019-03-16T08:23:38.436Z,997.4
2019-03-16T08:24:40.495Z,997.4
2019-03-16T08:25:42.534Z,997.3
2019-03-16T08:26:44.562Z,997.3
2019-03-16T08:27:54.881Z,997.3
2019-03-16T08:28:59.552Z,997.3
2019-03-16T08:30:01.953Z,997.3
2019-03-16T08:31:04.371Z,997.3
2019-03-16T08:32:06.416Z,997.3
2019-03-16T08:33:08.831Z,997.3
2019-03-16T08:34:10.873Z,997.3
2019-03-16T08:35:12.916Z,997.3
2019-03-16T08:36:14.942Z,997.3
2019-03-16T08:37:16.982Z,997.2
2019-03-16T08:38:19.306Z,997.3
2019-03-16T08:39:21.473Z,997.3
2019-03-16T08:40:23.542Z,997.3
2019-03-16T08:41:25.576Z,997.3
2019-03-16T08:42:27.618Z,997.3
2019-03-16T08:43:29.652Z,997.3
2019-03-16T08:44:32.059Z,997.4
2019-03-16T08:45:34.107Z,997.3
2019-03-16T08:46:36.145Z,997.4
2019-03-16T08:47:38.169Z,997.4
2019-03-16T08:48:40.306Z,997.4
2019-03-16T08:49:42.351Z,997.4
2019-03-16T08:50:44.440Z,997.4
2019-03-16T08:51:46.563Z,997.4
2019-03-16T08:52:48.680Z,997.4
2019-03-16T08:53:50.726Z,997.5
2019-03-16T08:54:52.759Z,997.5
2019-03-16T08:55:54.819Z,997.5
2019-03-16T08:56:56.847Z,997.5
2019-03-16T08:58:06.570Z,997.6
2019-03-16T08:59:08.662Z,997.5
2019-03-16T09:00:10.700Z,997.5
2019-03-16T09:01:12.819Z,997.5
2019-03-16T09:02:14.904Z,997.5
2019-03-16T09:03:16.936Z,997.6
2019-03-16T09:04:19.254Z,997.6
2019-03-16T09:05:21.369Z,997.6
2019-03-16T09:06:23.399Z,997.5
2019-03-16T09:07:25.508Z,997.6
2019-03-16T09:08:27.564Z,997.5
2019-03-16T09:09:30.203Z,997.6
2019-03-16T09:10:32.528Z,997.6
2019-03-16T09:11:34.634Z,997.6
2019-03-16T09:12:36.753Z,997.5
2019-03-16T09:13:38.798Z,997.5
2019-03-16T09:14:40.841Z,997.5
2019-03-16T09:15:42.875Z,997.5
2019-03-16T09:16:44.914Z,997.5
2019-03-16T09:17:46.960Z,997.5
2019-03-16T09:18:49.159Z,997.5
2019-03-16T09:19:51.197Z,997.5
2019-03-16T09:20:53.230Z,997.5
2019-03-16T09:21:55.259Z,997.5
2019-03-16T09:22:57.544Z,997.6
2019-03-16T09:24:00.280Z,997.6
2019-03-16T09:25:02.605Z,997.6
2019-03-16T09:26:04.637Z,997.5
2019-03-16T09:27:07.408Z,997.5
2019-03-16T09:28:19.182Z,997.6
2019-03-16T09:29:21.297Z,997.5
2019-03-16T09:30:23.325Z,997.6
2019-03-16T09:31:25.360Z,997.7
2019-03-16T09:32:27.404Z,997.6
2019-03-16T09:33:29.432Z,997.5
2019-03-16T09:34:31.515Z,997.6
2019-03-16T09:35:33.567Z,997.6
2019-03-16T09:36:35.620Z,997.7
2019-03-16T09:37:37.950Z,997.6
2019-03-16T09:38:40.009Z,997.6
2019-03-16T09:39:42.349Z,997.6
2019-03-16T09:40:44.382Z,997.6
2019-03-16T09:41:46.430Z,997.7
2019-03-16T09:42:48.457Z,997.7
2019-03-16T09:43:50.504Z,997.7
2019-03-16T09:44:52.566Z,997.7
2019-03-16T09:45:54.615Z,997.6
2019-03-16T09:46:56.658Z,997.7
2019-03-16T09:47:58.739Z,997.7
2019-03-16T09:49:00.773Z,997.7
2019-03-16T09:50:02.816Z,997.7
2019-03-16T09:51:04.875Z,997.7
2019-03-16T09:52:06.904Z,997.8
2019-03-16T09:53:08.946Z,997.7
2019-03-16T09:54:10.986Z,997.7
2019-03-16T09:55:13.044Z,997.7
2019-03-16T09:56:15.433Z,997.7
2019-03-16T09:57:17.492Z,997.7
2019-03-16T09:58:31.801Z,997.7
2019-03-16T10:00:06.282Z,997.7
2019-03-16T10:01:08.424Z,997.7
2019-03-16T10:02:10.556Z,997.7
2019-03-16T10:03:12.662Z,997.6
2019-03-16T10:04:15.103Z,997.8
2019-03-16T10:05:17.228Z,997.8
2019-03-16T10:06:19.672Z,997.8
2019-03-16T10:07:21.802Z,997.8
2019-03-16T10:08:23.907Z,997.8
2019-03-16T10:09:26.591Z,997.8
2019-03-16T10:10:29.308Z,997.9
2019-03-16T10:11:31.437Z,997.8
2019-03-16T10:12:33.557Z,997.8
2019-03-16T10:13:35.699Z,997.8
2019-03-16T10:14:37.824Z,997.8
2019-03-16T10:15:39.964Z,997.8
2019-03-16T10:16:42.506Z,997.9
2019-03-16T10:17:44.643Z,997.8
2019-03-16T10:18:46.849Z,997.8
2019-03-16T10:19:48.986Z,997.8
2019-03-16T10:20:51.158Z,997.7
2019-03-16T10:21:53.294Z,997.7
2019-03-16T10:22:55.426Z,997.8
2019-03-16T10:23:57.836Z,997.8
2019-03-16T10:25:00.390Z,997.9
2019-03-16T10:26:02.838Z,997.8
2019-03-16T10:27:04.972Z,997.8
2019-03-16T10:28:07.083Z,997.7
2019-03-16T10:29:09.261Z,997.7
2019-03-16T10:30:11.374Z,997.7
2019-03-16T10:31:13.823Z,997.6
2019-03-16T10:32:15.942Z,997.6
2019-03-16T10:33:19.687Z,997.6
2019-03-16T10:34:25.840Z,997.6
2019-03-16T10:35:27.938Z,997.5
2019-03-16T10:36:29.983Z,997.5
2019-03-16T10:37:32.035Z,997.5
2019-03-16T10:38:34.066Z,997.5
2019-03-16T10:39:36.108Z,997.6
2019-03-16T10:40:38.238Z,997.5
2019-03-16T10:41:40.264Z,997.6
2019-03-16T10:42:42.298Z,997.6
2019-03-16T10:43:44.380Z,997.6
2019-03-16T10:44:46.418Z,997.5
2019-03-16T10:45:48.728Z,997.6
2019-03-16T10:46:50.771Z,997.6
2019-03-16T10:47:52.900Z,997.6
2019-03-16T10:48:54.925Z,997.6
2019-03-16T10:49:56.968Z,997.6
2019-03-16T10:51:00.884Z,997.5
2019-03-16T10:52:06.562Z,997.5
2019-03-16T10:53:08.617Z,997.5
2019-03-16T10:54:10.958Z,997.5
2019-03-16T10:55:13.030Z,997.5
2019-03-16T10:56:15.080Z,997.5
2019-03-16T10:57:17.415Z,997.5
2019-03-16T10:58:19.455Z,997.4
2019-03-16T10:59:21.513Z,997.5
2019-03-16T11:00:23.604Z,997.5
2019-03-16T11:01:25.632Z,997.5
2019-03-16T11:02:27.674Z,997.4
2019-03-16T11:03:29.729Z,997.5
2019-03-16T11:04:31.770Z,997.4
2019-03-16T11:05:33.900Z,997.4
2019-03-16T11:06:35.941Z,997.4
2019-03-16T11:07:37.981Z,997.3
2019-03-16T11:08:40.016Z,997.4
2019-03-16T11:09:42.159Z,997.3
2019-03-16T11:10:44.279Z,997.3
2019-03-16T11:11:46.607Z,997.3
2019-03-16T11:12:48.645Z,997.2
2019-03-16T11:13:50.741Z,997.3
2019-03-16T11:14:52.776Z,997.3
2019-03-16T11:15:54.814Z,997.4
2019-03-16T11:16:56.874Z,997.3
2019-03-16T11:17:58.926Z,997.3
2019-03-16T11:19:01.030Z,997.4
2019-03-16T11:20:03.093Z,997.4
2019-03-16T11:21:05.536Z,997.3
2019-03-16T11:22:07.562Z,997.3
2019-03-16T11:23:09.893Z,997.3
2019-03-16T11:24:11.928Z,997.2
2019-03-16T11:25:13.960Z,997.3
2019-03-16T11:26:15.991Z,997.3
2019-03-16T11:27:18.042Z,997.3
2019-03-16T11:28:20.085Z,997.4
2019-03-16T11:29:22.144Z,997.4
2019-03-16T11:30:24.570Z,997.3
2019-03-16T11:31:26.588Z,997.3
2019-03-16T11:32:28.629Z,997.3
2019-03-16T11:33:30.670Z,997.3
2019-03-16T11:34:32.712Z,997.3
2019-03-16T11:35:34.755Z,997.2
2019-03-16T11:36:36.832Z,997.2
2019-03-16T11:37:39.539Z,997.3
2019-03-16T11:38:41.893Z,997.2
2019-03-16T11:39:44.205Z,997.2
2019-03-16T11:40:46.257Z,997.1
2019-03-16T11:41:48.296Z,997.2
2019-03-16T11:42:50.661Z,997.1
2019-03-16T11:43:52.697Z,997.1
2019-03-16T11:44:55.033Z,997.2
2019-03-16T11:45:57.085Z,997.2
2019-03-16T11:46:59.121Z,997.1
2019-03-16T11:48:01.173Z,997.2
2019-03-16T11:49:03.209Z,997.1
2019-03-16T11:50:05.914Z,997.1
2019-03-16T11:51:07.949Z,997.2
2019-03-16T11:52:09.993Z,997.1
2019-03-16T11:53:12.038Z,997.1
2019-03-16T11:54:14.092Z,997.1
2019-03-16T11:55:16.151Z,997.1
2019-03-16T11:56:18.812Z,997.2
2019-03-16T11:57:21.226Z,997.2
2019-03-16T11:58:23.274Z,997.2
2019-03-16T11:59:25.300Z,997.1
2019-03-16T12:00:27.395Z,997.1
2019-03-16T12:01:29.449Z,997.1
2019-03-16T12:02:31.859Z,997.1
2019-03-16T12:03:34.195Z,997.1
2019-03-16T12:04:36.230Z,997.1
2019-03-16T12:05:38.958Z,997.1
2019-03-16T12:06:41.030Z,997
2019-03-16T12:07:43.064Z,997.1
2019-03-16T12:08:45.103Z,997
2019-03-16T12:09:47.143Z,997.1
2019-03-16T12:10:49.508Z,997
2019-03-16T12:11:51.876Z,997.1
2019-03-16T12:12:53.912Z,997.1
2019-03-16T12:13:55.935Z,997
2019-03-16T12:14:57.976Z,997.1
2019-03-16T12:16:00.018Z,997
2019-03-16T12:17:02.042Z,997.1
2019-03-16T12:18:04.113Z,997
2019-03-16T12:19:06.157Z,997
2019-03-16T12:20:08.179Z,996.9
2019-03-16T12:21:10.529Z,996.9
2019-03-16T12:22:12.570Z,996.9
2019-03-16T12:23:14.877Z,996.9
2019-03-16T12:24:16.901Z,996.9
2019-03-16T12:25:18.960Z,996.8
2019-03-16T12:26:20.996Z,996.8
2019-03-16T12:27:23.116Z,996.8
2019-03-16T12:28:25.168Z,996.8
2019-03-16T12:29:34.565Z,996.8
2019-03-16T12:30:36.647Z,996.7
2019-03-16T12:31:38.709Z,996.8
2019-03-16T12:32:40.744Z,996.7
2019-03-16T12:33:42.780Z,996.8
2019-03-16T12:34:44.850Z,996.8
2019-03-16T12:35:46.897Z,996.8
2019-03-16T12:36:48.972Z,996.8
2019-03-16T12:37:50.994Z,996.8
2019-03-16T12:38:53.315Z,996.8
2019-03-16T12:39:55.349Z,996.8
2019-03-16T12:40:57.400Z,996.8
2019-03-16T12:41:59.440Z,996.7
2019-03-16T12:43:01.491Z,996.7
2019-03-16T12:44:03.789Z,996.8
2019-03-16T12:45:06.554Z,996.8
2019-03-16T12:46:08.599Z,996.7
2019-03-16T12:47:10.926Z,996.7
2019-03-16T12:48:12.964Z,996.7
2019-03-16T12:49:15.023Z,996.8
2019-03-16T12:50:17.093Z,996.7
2019-03-16T12:51:19.617Z,996.8
2019-03-16T12:52:22.046Z,996.7
2019-03-16T12:53:24.069Z,996.7
2019-03-16T12:54:26.119Z,996.6
2019-03-16T12:55:28.173Z,996.6
2019-03-16T12:56:30.237Z,996.6
2019-03-16T12:57:32.302Z,996.6
2019-03-16T12:58:34.553Z,996.5
2019-03-16T12:59:47.439Z,996.5
2019-03-16T13:00:49.795Z,996.5
2019-03-16T13:01:51.857Z,996.5
2019-03-16T13:02:54.340Z,996.4
2019-03-16T13:03:56.393Z,996.4
2019-03-16T13:04:58.425Z,996.5
2019-03-16T13:06:00.485Z,996.4
2019-03-16T13:07:02.649Z,996.4
2019-03-16T13:08:04.693Z,996.5
2019-03-16T13:09:06.718Z,996.4
2019-03-16T13:10:08.784Z,996.4
2019-03-16T13:11:10.964Z,996.4
2019-03-16T13:12:12.994Z,996.3
2019-03-16T13:13:15.039Z,996.4
2019-03-16T13:14:17.084Z,996.4
2019-03-16T13:15:19.117Z,996.3
2019-03-16T13:16:21.237Z,996.3
2019-03-16T13:17:23.283Z,996.3
2019-03-16T13:18:25.377Z,996.2
2019-03-16T13:19:27.409Z,996.2
2019-03-16T13:20:29.506Z,996.2
2019-03-16T13:21:31.568Z,996.2
2019-03-16T13:22:33.601Z,996.2
2019-03-16T13:23:35.641Z,996.2
2019-03-16T13:24:37.667Z,996.2
2019-03-16T13:25:40.004Z,996.1
2019-03-16T13:26:42.059Z,996.2
2019-03-16T13:27:44.095Z,996.1
2019-03-16T13:28:46.519Z,996.2